< < Back
Terminal Aerodrome Forecast


Current Version              Previous Versions:   1  2  3  4  5  6  7  8  9  

Terminal Aerodrome Forecast

553
FTUS42 KILM 060520
TAFFLO
TAF
KFLO 060520Z 0606/0706 20004KT P6SM FEW030 SCT120
     FM061300 24009KT P6SM VCSH SCT025 SCT120
     FM061800 21008KT P6SM VCTS SCT025 SCT050CB BKN120
     FM070200 18003KT P6SM FEW030 SCT150=

Latest METAR

389
SAUS70 KWBC 061300 RRI
MTRFLO
METAR KFLO 061253Z 22005KT 10SM OVC005 23/22 A3015 RMK AO2 SLP207
T02280217


USA.gov is the U.S. government's official web portal to all federal, state and local government web resources and services.